sensor_id;sensor_type;location;lat;lon;timestamp;pressure;altitude;pressure_sealevel;temperature;humidity
58373;BME280;44177;43.356;27.672;2022-07-11T00:02:22;97746.03;;;18.25;65.30
58373;BME280;44177;43.356;27.672;2022-07-11T00:04:48;97726.56;;;17.97;65.70
58373;BME280;44177;43.356;27.672;2022-07-11T00:07:14;97733.69;;;17.91;66.22
58373;BME280;44177;43.356;27.672;2022-07-11T00:09:40;97753.41;;;17.93;66.35
58373;BME280;44177;43.356;27.672;2022-07-11T00:12:07;97757.34;;;17.92;66.45
58373;BME280;44177;43.356;27.672;2022-07-11T00:14:33;97748.31;;;17.84;67.05
58373;BME280;44177;43.356;27.672;2022-07-11T00:16:58;97745.25;;;17.79;67.18
58373;BME280;44177;43.356;27.672;2022-07-11T00:19:24;97733.09;;;17.65;67.33
58373;BME280;44177;43.356;27.672;2022-07-11T00:21:50;97747.28;;;17.67;67.24
58373;BME280;44177;43.356;27.672;2022-07-11T00:24:17;97752.03;;;17.67;67.46
58373;BME280;44177;43.356;27.672;2022-07-11T00:26:45;97755.88;;;17.77;67.82
58373;BME280;44177;43.356;27.672;2022-07-11T00:29:11;97754.19;;;17.90;67.14
58373;BME280;44177;43.356;27.672;2022-07-11T00:31:37;97754.69;;;17.78;67.48
58373;BME280;44177;43.356;27.672;2022-07-11T00:34:02;97755.94;;;17.70;68.25
58373;BME280;44177;43.356;27.672;2022-07-11T00:36:28;97733.22;;;17.51;68.17
58373;BME280;44177;43.356;27.672;2022-07-11T00:38:53;97725.34;;;17.49;67.99
58373;BME280;44177;43.356;27.672;2022-07-11T00:41:19;97750.91;;;17.53;68.65
58373;BME280;44177;43.356;27.672;2022-07-11T00:43:52;97765.13;;;17.52;68.89
58373;BME280;44177;43.356;27.672;2022-07-11T00:46:19;97769.44;;;17.53;68.75
58373;BME280;44177;43.356;27.672;2022-07-11T00:48:44;97746.28;;;17.40;69.23
58373;BME280;44177;43.356;27.672;2022-07-11T00:51:10;97751.44;;;17.34;69.49
58373;BME280;44177;43.356;27.672;2022-07-11T00:53:36;97738.94;;;17.15;69.81
58373;BME280;44177;43.356;27.672;2022-07-11T00:56:02;97765.25;;;17.30;70.10
58373;BME280;44177;43.356;27.672;2022-07-11T00:58:27;97759.34;;;17.28;69.77
58373;BME280;44177;43.356;27.672;2022-07-11T01:00:53;97774.28;;;17.34;69.78
58373;BME280;44177;43.356;27.672;2022-07-11T01:03:18;97746.41;;;17.18;69.87
58373;BME280;44177;43.356;27.672;2022-07-11T01:05:44;97744.53;;;17.04;70.04
58373;BME280;44177;43.356;27.672;2022-07-11T01:08:09;97775.91;;;17.21;70.53
58373;BME280;44177;43.356;27.672;2022-07-11T01:10:35;97788.09;;;17.27;70.25
58373;BME280;44177;43.356;27.672;2022-07-11T01:13:01;97753.16;;;17.02;70.38
58373;BME280;44177;43.356;27.672;2022-07-11T01:15:26;97775.13;;;17.17;70.48
58373;BME280;44177;43.356;27.672;2022-07-11T01:17:52;97775.13;;;17.20;70.39
58373;BME280;44177;43.356;27.672;2022-07-11T01:20:19;97768.09;;;17.05;70.49
58373;BME280;44177;43.356;27.672;2022-07-11T01:22:47;97771.31;;;16.96;70.91
58373;BME280;44177;43.356;27.672;2022-07-11T01:25:17;97758.31;;;16.97;70.85
58373;BME280;44177;43.356;27.672;2022-07-11T01:28:03;97757.91;;;16.98;70.75
58373;BME280;44177;43.356;27.672;2022-07-11T01:30:30;97794.47;;;17.10;70.71
58373;BME280;44177;43.356;27.672;2022-07-11T01:32:57;97790.16;;;17.01;71.55
58373;BME280;44177;43.356;27.672;2022-07-11T01:35:24;97757.97;;;16.77;71.38
58373;BME280;44177;43.356;27.672;2022-07-11T01:37:50;97796.84;;;17.08;71.01
58373;BME280;44177;43.356;27.672;2022-07-11T01:40:16;97794.88;;;17.04;71.37
58373;BME280;44177;43.356;27.672;2022-07-11T01:42:42;97763.03;;;16.96;70.77
58373;BME280;44177;43.356;27.672;2022-07-11T01:45:11;97784.63;;;17.09;70.66
58373;BME280;44177;43.356;27.672;2022-07-11T01:47:38;97793.25;;;17.18;70.81
58373;BME280;44177;43.356;27.672;2022-07-11T01:50:04;97779.97;;;16.98;70.48
58373;BME280;44177;43.356;27.672;2022-07-11T01:52:30;97765.78;;;16.89;70.86
58373;BME280;44177;43.356;27.672;2022-07-11T01:54:55;97797.25;;;16.99;71.68
58373;BME280;44177;43.356;27.672;2022-07-11T01:57:21;97784.66;;;17.01;71.20
58373;BME280;44177;43.356;27.672;2022-07-11T01:59:46;97794.06;;;17.15;70.59
58373;BME280;44177;43.356;27.672;2022-07-11T02:02:13;97791.28;;;17.22;70.12
58373;BME280;44177;43.356;27.672;2022-07-11T02:04:39;97777.94;;;17.10;69.91
58373;BME280;44177;43.356;27.672;2022-07-11T02:07:04;97798.31;;;17.34;69.84
58373;BME280;44177;43.356;27.672;2022-07-11T02:09:30;97801.47;;;17.36;69.75
58373;BME280;44177;43.356;27.672;2022-07-11T02:11:55;97792.50;;;17.14;69.80
58373;BME280;44177;43.356;27.672;2022-07-11T02:14:20;97817.25;;;17.21;70.13
58373;BME280;44177;43.356;27.672;2022-07-11T02:16:47;97808.19;;;17.28;69.73
58373;BME280;44177;43.356;27.672;2022-07-11T02:19:13;97802.31;;;17.22;69.88
58373;BME280;44177;43.356;27.672;2022-07-11T02:21:38;97791.75;;;17.02;70.19
58373;BME280;44177;43.356;27.672;2022-07-11T02:24:04;97813.78;;;17.02;70.51
58373;BME280;44177;43.356;27.672;2022-07-11T02:26:30;97804.34;;;16.89;71.06
58373;BME280;44177;43.356;27.672;2022-07-11T02:28:56;97823.66;;;16.82;71.70
58373;BME280;44177;43.356;27.672;2022-07-11T02:31:22;97809.94;;;16.60;72.14
58373;BME280;44177;43.356;27.672;2022-07-11T02:33:47;97809.97;;;16.49;72.28
58373;BME280;44177;43.356;27.672;2022-07-11T02:36:13;97801.72;;;16.31;73.13
58373;BME280;44177;43.356;27.672;2022-07-11T02:38:39;97833.53;;;16.54;73.28
58373;BME280;44177;43.356;27.672;2022-07-11T02:41:04;97835.09;;;16.58;72.97
58373;BME280;44177;43.356;27.672;2022-07-11T02:43:30;97826.50;;;16.49;73.37
58373;BME280;44177;43.356;27.672;2022-07-11T02:45:55;97839.03;;;16.57;73.32
58373;BME280;44177;43.356;27.672;2022-07-11T02:48:21;97841.78;;;16.54;73.40
58373;BME280;44177;43.356;27.672;2022-07-11T02:50:47;97838.28;;;16.42;73.27
58373;BME280;44177;43.356;27.672;2022-07-11T02:53:12;97849.28;;;16.50;73.76
58373;BME280;44177;43.356;27.672;2022-07-11T02:55:38;97814.69;;;16.34;73.40
58373;BME280;44177;43.356;27.672;2022-07-11T02:58:03;97842.19;;;16.52;73.51
58373;BME280;44177;43.356;27.672;2022-07-11T03:03:39;97853.19;;;16.67;72.90
58373;BME280;44177;43.356;27.672;2022-07-11T03:06:04;97849.25;;;16.64;72.67
58373;BME280;44177;43.356;27.672;2022-07-11T03:08:30;97835.50;;;16.53;72.93
58373;BME280;44177;43.356;27.672;2022-07-11T03:10:56;97855.59;;;16.61;72.71
58373;BME280;44177;43.356;27.672;2022-07-11T03:13:21;97852.44;;;16.63;73.07
58373;BME280;44177;43.356;27.672;2022-07-11T03:15:47;97866.94;;;16.78;72.76
58373;BME280;44177;43.356;27.672;2022-07-11T03:18:12;97860.28;;;16.71;72.90
58373;BME280;44177;43.356;27.672;2022-07-11T03:20:38;97863.81;;;16.54;73.71
58373;BME280;44177;43.356;27.672;2022-07-11T03:23:03;97876.81;;;16.64;73.89
58373;BME280;44177;43.356;27.672;2022-07-11T03:25:28;97885.47;;;16.73;73.45
58373;BME280;44177;43.356;27.672;2022-07-11T03:27:54;97883.84;;;16.83;73.44
58373;BME280;44177;43.356;27.672;2022-07-11T03:30:20;97881.50;;;16.89;72.78
58373;BME280;44177;43.356;27.672;2022-07-11T03:32:45;97876.38;;;16.91;72.62
58373;BME280;44177;43.356;27.672;2022-07-11T03:35:11;97877.16;;;16.88;73.02
58373;BME280;44177;43.356;27.672;2022-07-11T03:37:55;97864.97;;;16.89;72.48
58373;BME280;44177;43.356;27.672;2022-07-11T03:40:20;97870.91;;;16.95;72.64
58373;BME280;44177;43.356;27.672;2022-07-11T03:42:46;97883.06;;;17.08;72.40
58373;BME280;44177;43.356;27.672;2022-07-11T03:45:11;97874.75;;;17.15;72.24
58373;BME280;44177;43.356;27.672;2022-07-11T03:47:37;97868.06;;;17.20;72.13
58373;BME280;44177;43.356;27.672;2022-07-11T03:50:03;97886.06;;;17.46;71.43
58373;BME280;44177;43.356;27.672;2022-07-11T03:52:28;97882.94;;;17.48;71.22
58373;BME280;44177;43.356;27.672;2022-07-11T03:54:54;97883.25;;;17.61;70.91
58373;BME280;44177;43.356;27.672;2022-07-11T03:57:19;97876.47;;;17.73;71.25
58373;BME280;44177;43.356;27.672;2022-07-11T03:59:45;97877.97;;;17.88;70.51
58373;BME280;44177;43.356;27.672;2022-07-11T04:02:10;97903.91;;;18.12;69.35
58373;BME280;44177;43.356;27.672;2022-07-11T04:04:36;97882.25;;;18.04;69.51
58373;BME280;44177;43.356;27.672;2022-07-11T04:07:01;97893.91;;;18.29;69.07
58373;BME280;44177;43.356;27.672;2022-07-11T04:09:26;97878.59;;;18.18;68.53
58373;BME280;44177;43.356;27.672;2022-07-11T04:11:52;97888.94;;;18.10;69.04
58373;BME280;44177;43.356;27.672;2022-07-11T04:14:18;97885.63;;;18.29;68.16
58373;BME280;44177;43.356;27.672;2022-07-11T04:16:43;97878.13;;;18.34;67.48
58373;BME280;44177;43.356;27.672;2022-07-11T04:19:08;97904.34;;;18.56;67.59
58373;BME280;44177;43.356;27.672;2022-07-11T04:21:34;97872.94;;;18.36;67.06
58373;BME280;44177;43.356;27.672;2022-07-11T04:24:00;97888.59;;;18.53;67.23
58373;BME280;44177;43.356;27.672;2022-07-11T04:26:26;97913.25;;;18.75;66.27
58373;BME280;44177;43.356;27.672;2022-07-11T04:28:52;97884.50;;;18.69;66.50
58373;BME280;44177;43.356;27.672;2022-07-11T04:31:17;97901.28;;;18.92;65.71
58373;BME280;44177;43.356;27.672;2022-07-11T04:33:42;97885.09;;;18.94;65.35
58373;BME280;44177;43.356;27.672;2022-07-11T04:36:08;97876.31;;;19.03;64.95
58373;BME280;44177;43.356;27.672;2022-07-11T04:38:33;97893.19;;;19.13;65.47
58373;BME280;44177;43.356;27.672;2022-07-11T04:40:59;97896.34;;;19.15;64.31
58373;BME280;44177;43.356;27.672;2022-07-11T04:43:24;97905.41;;;19.15;64.91
58373;BME280;44177;43.356;27.672;2022-07-11T04:45:50;97904.47;;;19.29;64.38
58373;BME280;44177;43.356;27.672;2022-07-11T04:48:15;97916.25;;;19.37;64.32
58373;BME280;44177;43.356;27.672;2022-07-11T04:50:44;97916.97;;;19.41;63.77
58373;BME280;44177;43.356;27.672;2022-07-11T04:53:10;97907.56;;;19.35;63.63
58373;BME280;44177;43.356;27.672;2022-07-11T04:55:37;97905.56;;;19.35;63.61
58373;BME280;44177;43.356;27.672;2022-07-11T04:58:08;97921.97;;;19.53;62.91
58373;BME280;44177;43.356;27.672;2022-07-11T05:00:35;97916.84;;;19.52;64.21
58373;BME280;44177;43.356;27.672;2022-07-11T05:03:01;97915.13;;;19.62;62.87
58373;BME280;44177;43.356;27.672;2022-07-11T05:05:26;97912.66;;;19.71;62.58
58373;BME280;44177;43.356;27.672;2022-07-11T05:07:53;97928.66;;;19.91;61.95
58373;BME280;44177;43.356;27.672;2022-07-11T05:10:18;97944.41;;;19.94;60.84
58373;BME280;44177;43.356;27.672;2022-07-11T05:12:44;97934.59;;;19.89;62.46
58373;BME280;44177;43.356;27.672;2022-07-11T05:15:10;97941.69;;;19.90;62.24
58373;BME280;44177;43.356;27.672;2022-07-11T05:17:35;97943.88;;;20.06;61.95
58373;BME280;44177;43.356;27.672;2022-07-11T05:20:01;97934.97;;;20.18;61.40
58373;BME280;44177;43.356;27.672;2022-07-11T05:22:27;97939.75;;;20.18;60.21
58373;BME280;44177;43.356;27.672;2022-07-11T05:24:52;97944.59;;;20.38;60.19
58373;BME280;44177;43.356;27.672;2022-07-11T05:27:18;97936.34;;;20.34;59.66
58373;BME280;44177;43.356;27.672;2022-07-11T05:29:43;97938.88;;;20.48;59.25
58373;BME280;44177;43.356;27.672;2022-07-11T05:32:09;97954.44;;;20.66;58.47
58373;BME280;44177;43.356;27.672;2022-07-11T05:34:35;97952.69;;;20.52;58.92
58373;BME280;44177;43.356;27.672;2022-07-11T05:37:00;97936.75;;;20.60;57.86
58373;BME280;44177;43.356;27.672;2022-07-11T05:39:26;97959.31;;;20.86;58.38
58373;BME280;44177;43.356;27.672;2022-07-11T05:41:51;97940.38;;;20.80;58.19
58373;BME280;44177;43.356;27.672;2022-07-11T05:44:18;97955.16;;;20.97;57.93
58373;BME280;44177;43.356;27.672;2022-07-11T05:46:44;97941.13;;;20.85;57.61
58373;BME280;44177;43.356;27.672;2022-07-11T05:49:10;97954.19;;;21.08;58.56
58373;BME280;44177;43.356;27.672;2022-07-11T05:51:36;97947.03;;;21.10;57.09
58373;BME280;44177;43.356;27.672;2022-07-11T05:54:02;97949.88;;;21.27;57.38
58373;BME280;44177;43.356;27.672;2022-07-11T05:56:27;97955.88;;;21.45;56.78
58373;BME280;44177;43.356;27.672;2022-07-11T05:58:53;97963.53;;;21.61;57.80
58373;BME280;44177;43.356;27.672;2022-07-11T06:01:20;97954.13;;;21.75;58.02
58373;BME280;44177;43.356;27.672;2022-07-11T06:03:46;97937.66;;;21.85;55.80
58373;BME280;44177;43.356;27.672;2022-07-11T06:06:12;97944.47;;;22.00;55.53
58373;BME280;44177;43.356;27.672;2022-07-11T06:08:37;97945.53;;;22.06;54.66
58373;BME280;44177;43.356;27.672;2022-07-11T06:11:05;97943.78;;;21.96;54.19
58373;BME280;44177;43.356;27.672;2022-07-11T06:13:31;97940.34;;;22.08;54.96
58373;BME280;44177;43.356;27.672;2022-07-11T06:15:57;97959.13;;;22.21;54.16
58373;BME280;44177;43.356;27.672;2022-07-11T06:18:23;97935.69;;;22.38;55.26
58373;BME280;44177;43.356;27.672;2022-07-11T06:20:49;97961.28;;;22.83;53.37
58373;BME280;44177;43.356;27.672;2022-07-11T06:23:14;97957.66;;;23.15;51.74
58373;BME280;44177;43.356;27.672;2022-07-11T06:25:40;97960.50;;;23.45;50.32
58373;BME280;44177;43.356;27.672;2022-07-11T06:28:05;97959.69;;;23.74;49.94
58373;BME280;44177;43.356;27.672;2022-07-11T06:30:32;97958.06;;;23.89;49.11
58373;BME280;44177;43.356;27.672;2022-07-11T06:32:58;97969.50;;;24.08;49.04
58373;BME280;44177;43.356;27.672;2022-07-11T06:35:23;97947.53;;;24.10;48.60
58373;BME280;44177;43.356;27.672;2022-07-11T06:37:49;97964.28;;;24.23;47.67
58373;BME280;44177;43.356;27.672;2022-07-11T06:40:15;97964.06;;;24.30;47.88
58373;BME280;44177;43.356;27.672;2022-07-11T06:42:43;97945.88;;;24.25;48.09
58373;BME280;44177;43.356;27.672;2022-07-11T06:45:09;97953.22;;;24.45;47.63
58373;BME280;44177;43.356;27.672;2022-07-11T06:47:34;97960.25;;;24.63;45.40
58373;BME280;44177;43.356;27.672;2022-07-11T06:50:00;97961.00;;;24.63;45.45
58373;BME280;44177;43.356;27.672;2022-07-11T06:52:25;97967.78;;;25.01;46.83
58373;BME280;44177;43.356;27.672;2022-07-11T06:54:51;97969.38;;;25.37;45.39
58373;BME280;44177;43.356;27.672;2022-07-11T06:57:16;97962.53;;;25.38;44.10
58373;BME280;44177;43.356;27.672;2022-07-11T06:59:42;97964.94;;;25.27;43.98
58373;BME280;44177;43.356;27.672;2022-07-11T07:02:07;97967.13;;;25.10;44.33
58373;BME280;44177;43.356;27.672;2022-07-11T07:04:33;97968.06;;;25.29;43.86
58373;BME280;44177;43.356;27.672;2022-07-11T07:06:59;97962.88;;;25.40;42.95
58373;BME280;44177;43.356;27.672;2022-07-11T07:09:25;97974.47;;;25.51;42.10
58373;BME280;44177;43.356;27.672;2022-07-11T07:11:52;97982.72;;;25.77;41.05
58373;BME280;44177;43.356;27.672;2022-07-11T07:14:17;97981.06;;;25.89;41.25
58373;BME280;44177;43.356;27.672;2022-07-11T07:16:42;97974.72;;;26.11;41.77
58373;BME280;44177;43.356;27.672;2022-07-11T07:19:08;97987.19;;;25.97;41.37
58373;BME280;44177;43.356;27.672;2022-07-11T07:21:33;97980.94;;;25.93;41.79
58373;BME280;44177;43.356;27.672;2022-07-11T07:23:59;97968.22;;;25.92;41.78
58373;BME280;44177;43.356;27.672;2022-07-11T07:26:24;98001.47;;;26.53;40.11
58373;BME280;44177;43.356;27.672;2022-07-11T07:28:50;97994.22;;;26.64;40.84
58373;BME280;44177;43.356;27.672;2022-07-11T07:31:15;97992.13;;;25.93;41.06
58373;BME280;44177;43.356;27.672;2022-07-11T07:33:41;97985.22;;;26.29;40.55
58373;BME280;44177;43.356;27.672;2022-07-11T07:36:07;97974.75;;;26.52;40.86
58373;BME280;44177;43.356;27.672;2022-07-11T07:38:32;98001.53;;;26.62;41.66
58373;BME280;44177;43.356;27.672;2022-07-11T07:40:58;97978.59;;;26.76;39.81
58373;BME280;44177;43.356;27.672;2022-07-11T07:43:23;97977.56;;;26.61;39.98
58373;BME280;44177;43.356;27.672;2022-07-11T07:45:49;97977.06;;;26.53;41.03
58373;BME280;44177;43.356;27.672;2022-07-11T07:48:14;97999.13;;;26.83;40.07
58373;BME280;44177;43.356;27.672;2022-07-11T07:50:40;97981.31;;;26.67;38.61
58373;BME280;44177;43.356;27.672;2022-07-11T07:53:06;97981.41;;;26.86;38.94
58373;BME280;44177;43.356;27.672;2022-07-11T07:55:33;98007.44;;;26.73;39.81
58373;BME280;44177;43.356;27.672;2022-07-11T07:57:58;97985.63;;;27.00;39.72
58373;BME280;44177;43.356;27.672;2022-07-11T08:00:24;97975.25;;;27.37;39.77
58373;BME280;44177;43.356;27.672;2022-07-11T08:03:08;97990.97;;;27.81;38.60
58373;BME280;44177;43.356;27.672;2022-07-11T08:05:34;97981.00;;;27.34;39.35
58373;BME280;44177;43.356;27.672;2022-07-11T08:08:00;97992.97;;;27.16;39.46
58373;BME280;44177;43.356;27.672;2022-07-11T08:10:25;97971.47;;;27.03;40.50
58373;BME280;44177;43.356;27.672;2022-07-11T08:12:51;97986.09;;;27.07;38.73
58373;BME280;44177;43.356;27.672;2022-07-11T08:15:16;97971.94;;;27.02;38.96
58373;BME280;44177;43.356;27.672;2022-07-11T08:17:42;97989.50;;;26.52;39.81
58373;BME280;44177;43.356;27.672;2022-07-11T08:20:08;97996.13;;;26.77;40.96
58373;BME280;44177;43.356;27.672;2022-07-11T08:22:33;97987.53;;;27.40;37.99
58373;BME280;44177;43.356;27.672;2022-07-11T08:24:59;97998.84;;;26.99;39.57
58373;BME280;44177;43.356;27.672;2022-07-11T08:27:25;97990.94;;;27.16;40.27
58373;BME280;44177;43.356;27.672;2022-07-11T08:29:50;98003.88;;;27.41;39.06
58373;BME280;44177;43.356;27.672;2022-07-11T08:32:16;97994.81;;;28.02;38.22
58373;BME280;44177;43.356;27.672;2022-07-11T08:34:41;97990.63;;;27.98;39.40
58373;BME280;44177;43.356;27.672;2022-07-11T08:37:06;98006.50;;;27.17;39.58
58373;BME280;44177;43.356;27.672;2022-07-11T08:39:32;98008.56;;;27.63;39.45
58373;BME280;44177;43.356;27.672;2022-07-11T08:41:57;98003.38;;;27.06;40.04
58373;BME280;44177;43.356;27.672;2022-07-11T08:44:24;97996.97;;;26.96;40.29
58373;BME280;44177;43.356;27.672;2022-07-11T08:46:50;98012.88;;;27.27;39.93
58373;BME280;44177;43.356;27.672;2022-07-11T08:49:18;98006.19;;;26.65;40.04
58373;BME280;44177;43.356;27.672;2022-07-11T08:51:46;97987.69;;;27.27;39.69
58373;BME280;44177;43.356;27.672;2022-07-11T08:54:12;97999.75;;;26.87;38.44
58373;BME280;44177;43.356;27.672;2022-07-11T08:56:38;97989.91;;;26.73;38.78
58373;BME280;44177;43.356;27.672;2022-07-11T08:59:04;97997.06;;;27.52;39.79
58373;BME280;44177;43.356;27.672;2022-07-11T09:01:34;97994.84;;;27.84;37.30
58373;BME280;44177;43.356;27.672;2022-07-11T09:04:00;97983.00;;;28.08;36.18
58373;BME280;44177;43.356;27.672;2022-07-11T09:06:27;97983.59;;;28.02;36.80
58373;BME280;44177;43.356;27.672;2022-07-11T09:08:57;97966.56;;;27.45;37.08
58373;BME280;44177;43.356;27.672;2022-07-11T09:11:22;97982.69;;;27.13;37.11
58373;BME280;44177;43.356;27.672;2022-07-11T09:13:48;98008.22;;;27.24;37.36
58373;BME280;44177;43.356;27.672;2022-07-11T09:16:17;98008.84;;;27.19;38.13
58373;BME280;44177;43.356;27.672;2022-07-11T09:18:42;98009.63;;;27.38;38.01
58373;BME280;44177;43.356;27.672;2022-07-11T09:21:14;98015.91;;;27.70;38.63
58373;BME280;44177;43.356;27.672;2022-07-11T09:24:00;97988.16;;;27.90;36.92
58373;BME280;44177;43.356;27.672;2022-07-11T09:26:46;98014.00;;;27.48;37.86
58373;BME280;44177;43.356;27.672;2022-07-11T09:31:39;98012.25;;;27.14;35.43
58373;BME280;44177;43.356;27.672;2022-07-11T09:34:07;98003.56;;;27.77;35.73
58373;BME280;44177;43.356;27.672;2022-07-11T09:36:54;97991.69;;;28.19;36.68
58373;BME280;44177;43.356;27.672;2022-07-11T09:39:28;98008.41;;;27.76;36.07
58373;BME280;44177;43.356;27.672;2022-07-11T09:41:54;98002.59;;;27.15;36.89
58373;BME280;44177;43.356;27.672;2022-07-11T09:44:26;98010.53;;;26.66;38.48
58373;BME280;44177;43.356;27.672;2022-07-11T09:46:54;98006.81;;;27.29;38.69
58373;BME280;44177;43.356;27.672;2022-07-11T09:49:33;98005.47;;;27.61;37.20
58373;BME280;44177;43.356;27.672;2022-07-11T09:52:10;98012.84;;;26.99;37.14
58373;BME280;44177;43.356;27.672;2022-07-11T09:54:56;97992.41;;;27.58;36.09
58373;BME280;44177;43.356;27.672;2022-07-11T09:57:32;97988.28;;;28.05;37.27
58373;BME280;44177;43.356;27.672;2022-07-11T09:59:59;97983.19;;;27.67;36.62
58373;BME280;44177;43.356;27.672;2022-07-11T10:02:26;97996.41;;;27.85;35.61
58373;BME280;44177;43.356;27.672;2022-07-11T10:04:51;97995.59;;;28.21;36.42
58373;BME280;44177;43.356;27.672;2022-07-11T10:07:17;97997.38;;;27.82;35.76
58373;BME280;44177;43.356;27.672;2022-07-11T10:09:43;97981.75;;;28.09;35.16
58373;BME280;44177;43.356;27.672;2022-07-11T10:12:08;97979.41;;;28.59;37.04
58373;BME280;44177;43.356;27.672;2022-07-11T10:14:36;97985.75;;;28.93;36.03
58373;BME280;44177;43.356;27.672;2022-07-11T10:17:12;97994.25;;;29.33;34.09
58373;BME280;44177;43.356;27.672;2022-07-11T10:19:48;97986.50;;;29.52;32.39
58373;BME280;44177;43.356;27.672;2022-07-11T10:27:38;97994.50;;;28.95;32.45
58373;BME280;44177;43.356;27.672;2022-07-11T10:30:08;97992.38;;;29.39;34.08
58373;BME280;44177;43.356;27.672;2022-07-11T10:32:59;97998.63;;;29.58;30.93
58373;BME280;44177;43.356;27.672;2022-07-11T10:35:29;97996.75;;;28.82;32.05
58373;BME280;44177;43.356;27.672;2022-07-11T10:37:54;97997.19;;;28.90;33.46
58373;BME280;44177;43.356;27.672;2022-07-11T10:40:42;98001.50;;;29.00;32.97
58373;BME280;44177;43.356;27.672;2022-07-11T10:43:09;97994.34;;;28.13;32.74
58373;BME280;44177;43.356;27.672;2022-07-11T10:46:01;97992.03;;;27.84;33.81
58373;BME280;44177;43.356;27.672;2022-07-11T10:48:29;97999.84;;;27.61;34.36
58373;BME280;44177;43.356;27.672;2022-07-11T10:54:10;97998.44;;;27.94;34.71
58373;BME280;44177;43.356;27.672;2022-07-11T10:56:57;98007.78;;;27.81;34.50
58373;BME280;44177;43.356;27.672;2022-07-11T10:59:26;97999.53;;;27.68;34.92
58373;BME280;44177;43.356;27.672;2022-07-11T11:10:05;98010.44;;;27.76;34.45
58373;BME280;44177;43.356;27.672;2022-07-11T11:15:49;98009.13;;;28.23;35.81
58373;BME280;44177;43.356;27.672;2022-07-11T11:23:40;97997.97;;;27.86;32.79
58373;BME280;44177;43.356;27.672;2022-07-11T11:28:35;98009.50;;;27.69;32.82
58373;BME280;44177;43.356;27.672;2022-07-11T11:31:06;98009.50;;;27.60;35.01
58373;BME280;44177;43.356;27.672;2022-07-11T11:33:34;98013.81;;;27.15;34.06
58373;BME280;44177;43.356;27.672;2022-07-11T11:36:09;98007.84;;;26.85;35.44
58373;BME280;44177;43.356;27.672;2022-07-11T11:38:40;98013.63;;;26.59;36.56
58373;BME280;44177;43.356;27.672;2022-07-11T11:41:06;98031.34;;;26.65;37.17
58373;BME280;44177;43.356;27.672;2022-07-11T11:43:34;98011.94;;;26.30;37.07
58373;BME280;44177;43.356;27.672;2022-07-11T11:46:00;98023.63;;;26.38;37.46
58373;BME280;44177;43.356;27.672;2022-07-11T11:51:08;98021.59;;;27.29;36.42
58373;BME280;44177;43.356;27.672;2022-07-11T11:53:38;98024.59;;;27.72;36.51
58373;BME280;44177;43.356;27.672;2022-07-11T11:56:14;98004.81;;;27.85;32.39
58373;BME280;44177;43.356;27.672;2022-07-11T11:58:44;97995.63;;;27.94;33.51
58373;BME280;44177;43.356;27.672;2022-07-11T12:01:13;98017.50;;;28.32;31.99
58373;BME280;44177;43.356;27.672;2022-07-11T12:03:56;98007.84;;;28.33;32.55
58373;BME280;44177;43.356;27.672;2022-07-11T12:06:29;98022.28;;;27.80;34.52
58373;BME280;44177;43.356;27.672;2022-07-11T12:09:06;98022.38;;;27.30;34.78
58373;BME280;44177;43.356;27.672;2022-07-11T12:11:32;98028.63;;;27.89;36.01
58373;BME280;44177;43.356;27.672;2022-07-11T12:14:10;98012.13;;;27.92;34.49
58373;BME280;44177;43.356;27.672;2022-07-11T12:16:46;97999.69;;;27.93;34.49
58373;BME280;44177;43.356;27.672;2022-07-11T12:19:21;98019.78;;;27.82;34.10
58373;BME280;44177;43.356;27.672;2022-07-11T12:21:49;98005.06;;;28.24;33.13
58373;BME280;44177;43.356;27.672;2022-07-11T12:24:18;98002.44;;;28.63;32.59
58373;BME280;44177;43.356;27.672;2022-07-11T12:26:45;98004.97;;;28.95;31.46
58373;BME280;44177;43.356;27.672;2022-07-11T12:31:55;98005.00;;;29.10;32.27
58373;BME280;44177;43.356;27.672;2022-07-11T12:34:23;98013.25;;;28.89;30.73
58373;BME280;44177;43.356;27.672;2022-07-11T12:36:50;98013.16;;;28.74;30.39
58373;BME280;44177;43.356;27.672;2022-07-11T12:39:28;98008.31;;;29.08;31.03
58373;BME280;44177;43.356;27.672;2022-07-11T12:41:55;98004.06;;;29.13;28.96
58373;BME280;44177;43.356;27.672;2022-07-11T12:44:25;98013.31;;;29.28;29.67
58373;BME280;44177;43.356;27.672;2022-07-11T12:47:10;97990.69;;;29.08;29.74
58373;BME280;44177;43.356;27.672;2022-07-11T12:49:35;97995.94;;;28.91;30.05
58373;BME280;44177;43.356;27.672;2022-07-11T12:52:02;97991.09;;;29.15;31.78
58373;BME280;44177;43.356;27.672;2022-07-11T12:54:32;97994.50;;;29.44;30.63
58373;BME280;44177;43.356;27.672;2022-07-11T12:56:59;97975.22;;;29.37;29.73
58373;BME280;44177;43.356;27.672;2022-07-11T12:59:30;97995.28;;;28.96;30.07
58373;BME280;44177;43.356;27.672;2022-07-11T13:04:49;97995.63;;;29.13;30.26
58373;BME280;44177;43.356;27.672;2022-07-11T13:10:27;97998.75;;;29.39;29.03
58373;BME280;44177;43.356;27.672;2022-07-11T13:13:16;97994.16;;;29.27;28.01
58373;BME280;44177;43.356;27.672;2022-07-11T13:15:43;97996.44;;;29.38;28.15
58373;BME280;44177;43.356;27.672;2022-07-11T13:18:09;97991.03;;;29.49;28.64
58373;BME280;44177;43.356;27.672;2022-07-11T13:20:35;98003.75;;;29.59;28.49
58373;BME280;44177;43.356;27.672;2022-07-11T13:23:01;98001.44;;;29.73;29.15
58373;BME280;44177;43.356;27.672;2022-07-11T13:25:27;97999.25;;;29.38;28.71
58373;BME280;44177;43.356;27.672;2022-07-11T13:27:53;97977.47;;;29.23;29.05
58373;BME280;44177;43.356;27.672;2022-07-11T13:30:20;97990.41;;;29.21;28.68
58373;BME280;44177;43.356;27.672;2022-07-11T13:32:48;98004.13;;;29.52;29.02
58373;BME280;44177;43.356;27.672;2022-07-11T13:35:15;97998.81;;;29.54;28.78
58373;BME280;44177;43.356;27.672;2022-07-11T13:37:42;97999.81;;;29.18;27.17